Latest Weather Observations for Casino

IDN60801

Issued at 11:32 am EDT Saturday 28 March 2015 (issued every 30 minutes, with the page automatically refreshed every 10 minutes)

About weather observations | Map of weather stations | Latest weather observations for NSW | Other Formats
Station Details ID: 058208 Name: CASINO AIRPORT AWS Lat: -28.88 Lon: 153.06 Height: 20.9 m
Data from the previous 72 hours. | See also: Recent months at Casino
Date/Time
EDT
Temp
°C
App
Temp
°C
Dew
Point
Rel
Hum
%
Delta-T
°C
Wind Press
QNH
hPa
Press
MSL
hPa
Rain
since 9 am
mm
Dir
 
Spd
km/h
Gust
km/h
Spd
kts
Gust
kts
28/11:30am 26.3 28.1 18.4 61 5.0 SSW 6 9 3 5 1021.8 1021.7 0.0
28/11:00am 25.6 27.1 18.0 63 4.8 E 7 11 4 6 1022.0 1021.9 0.0
28/10:30am 24.0 25.3 17.0 65 4.3 S 6 7 3 4 1022.2 1022.1 0.0
28/10:00am 23.4 24.6 16.9 67 4.0 S 6 11 3 6 1022.3 1022.2 0.0
28/09:30am 23.5 25.0 17.7 70 3.6 SW 6 11 3 6 1022.0 1021.9 0.0
28/09:00am 22.1 23.4 17.0 73 3.1 SW 6 11 3 6 1021.6 1021.5 0.0
28/08:30am 20.9 22.7 18.7 87 1.4 WNW 7 9 4 5 1021.6 1021.5 0.0
28/08:00am 19.2 21.6 18.0 93 0.7 S 2 7 1 4 1021.1 1021.0 0.0
28/07:30am 18.9 21.6 17.7 93 0.7 CALM 0 0 0 0 1020.6 1020.5 0.0
28/07:00am 18.1 20.5 16.9 93 0.7 CALM 0 0 0 0 1020.3 1020.2 0.0
28/06:30am 17.8 20.1 16.7 93 0.7 CALM 0 0 0 0 1019.9 1019.8 0.0
28/06:00am 17.9 20.1 16.6 92 0.8 CALM 0 0 0 0 1019.7 1019.6 0.0
28/05:30am 18.0 20.3 16.7 92 0.8 CALM 0 0 0 0 1019.5 1019.4 0.0
28/05:00am 18.6 21.2 17.4 93 0.7 CALM 0 0 0 0 1019.2 1019.1 0.0
28/04:30am 18.0 20.3 16.7 92 0.8 CALM 0 0 0 0 1019.1 1019.0 0.0
28/04:00am 18.2 20.6 16.9 92 0.8 CALM 0 0 0 0 1019.0 1018.9 0.0
28/03:30am 18.4 20.8 17.1 92 0.8 CALM 0 0 0 0 1018.9 1018.8 0.0
28/03:00am 18.4 20.9 17.2 93 0.7 CALM 0 0 0 0 1019.1 1019.0 0.0
28/02:30am 17.7 19.7 16.0 90 1.0 CALM 0 0 0 0 1019.3 1019.2 0.0
28/02:00am 17.7 19.7 16.0 90 1.0 CALM 0 0 0 0 1019.3 1019.2 0.0
28/01:30am 17.8 18.7 16.0 89 1.1 N 6 7 3 4 1019.4 1019.3 0.0
28/01:00am 17.8 19.7 15.8 88 1.2 CALM 0 0 0 0 1019.5 1019.4 0.0
28/12:30am 18.3 20.3 15.9 86 1.4 CALM 0 0 0 0 1019.6 1019.5 0.0
28/12:00am 19.0 21.2 16.4 85 1.6 CALM 0 0 0 0 1019.8 1019.7 0.0
 
Date/Time
EDT
Temp
°C
App
Temp
°C
Dew
Point
Rel
Hum
%
Delta-T
°C
Wind Press
QNH
hPa
Press
MSL
hPa
Rain
since 9 am
mm
Dir
 
Spd
km/h
Gust
km/h
Spd
kts
Gust
kts
27/11:30pm 19.7 21.8 16.3 81 2.0 CALM 0 0 0 0 1019.9 1019.8 0.0
27/11:00pm 20.5 22.9 16.9 80 2.2 CALM 0 0 0 0 1020.1 1020.0 0.0
27/10:30pm 20.9 22.1 17.3 80 2.2 SW 7 11 4 6 1020.1 1020.0 0.0
27/10:00pm 21.1 22.4 17.5 80 2.2 SSW 7 11 4 6 1020.2 1020.1 0.0
27/09:30pm 21.2 22.8 17.8 81 2.1 SW 6 9 3 5 1020.1 1020.0 0.0
27/09:00pm 21.2 22.8 18.2 83 1.9 SW 7 9 4 5 1019.9 1019.8 0.0
27/08:30pm 20.7 22.2 18.1 85 1.6 SW 7 11 4 6 1019.7 1019.6 0.0
27/08:00pm 20.3 21.8 17.5 84 1.7 SSW 6 7 3 4 1019.2 1019.1 0.0
27/07:30pm 20.8 22.3 17.6 82 2.0 SSE 6 7 3 4 1018.9 1018.8 0.0
27/07:00pm 21.6 22.5 17.6 78 2.5 ESE 9 13 5 7 1018.5 1018.4 0.0
27/06:30pm 23.0 22.4 17.5 71 3.4 SE 17 20 9 11 1018.3 1018.2 0.0
27/06:00pm 24.2 23.3 17.7 67 4.1 ESE 19 24 10 13 1018.0 1017.9 0.0
27/05:30pm 25.0 24.2 18.4 66 4.2 ESE 20 26 11 14 1017.7 1017.6 0.0
27/05:00pm 26.0 25.4 18.4 63 4.8 ESE 19 24 10 13 1017.3 1017.2 0.0
27/04:30pm 25.9 24.4 17.8 61 5.1 ESE 22 28 12 15 1017.1 1017.0 0.0
27/04:00pm 25.8 24.2 17.4 59 5.2 ESE 22 30 12 16 1017.2 1017.1 0.0
27/03:30pm 27.3 26.8 18.6 59 5.6 ESE 19 26 10 14 1017.4 1017.3 0.0
27/03:00pm 26.7 25.5 17.5 57 5.8 ESE 20 30 11 16 1017.5 1017.4 0.0
27/02:30pm 28.0 28.0 19.0 58 5.8 SE 17 24 9 13 1017.7 1017.6 0.0
27/02:00pm 27.7 27.8 19.2 60 5.5 SE 17 28 9 15 1018.1 1018.0 0.0
27/01:30pm 27.8 28.5 18.8 58 5.8 SE 13 22 7 12 1018.4 1018.3 0.0
27/01:00pm 27.1 28.4 19.2 62 5.1 ESE 11 15 6 8 1018.8 1018.7 0.0
27/12:30pm 26.4 27.4 17.7 58 5.5 SE 9 15 5 8 1019.2 1019.1 0.0
27/12:00pm 26.4 26.6 17.7 58 5.5 ESE 13 17 7 9 1019.7 1019.6 0.0
27/11:30am 26.1 26.2 17.5 59 5.4 SE 13 17 7 9 1019.9 1019.8 0.0
27/11:00am 26.0 26.8 18.2 62 4.9 SE 11 17 6 9 1020.0 1019.9 0.0
27/10:30am 24.5 24.2 16.5 61 4.9 S 13 20 7 11 1020.1 1020.0 0.0
27/10:00am 25.0 25.4 17.2 62 4.8 S 11 20 6 11 1019.8 1019.7 0.0
27/09:30am 23.9 25.8 19.0 74 3.1 SSW 7 13 4 7 1019.8 1019.7 0.0
27/09:00am 22.5 26.1 20.6 89 1.2 NW 2 7 1 4 1019.7 1019.6 19.8
27/08:30am 20.8 23.2 19.6 93 0.8 W 6 9 3 5 1019.3 1019.2 19.8
27/08:00am 20.3 23.6 19.1 93 0.8 CALM 0 2 0 1 1018.7 1018.6 19.8
27/07:30am 18.6 20.8 17.4 93 0.7 NW 2 6 1 3 1018.4 1018.3 19.8
27/07:00am 18.0 19.6 16.9 93 0.7 NNE 4 7 2 4 1017.9 1017.8 19.8
27/06:30am 18.2 20.2 16.9 92 0.8 SE 2 6 1 3 1017.4 1017.3 19.8
27/06:00am 18.5 19.6 17.2 92 0.8 S 7 7 4 4 1016.8 1016.7 19.6
27/05:30am 19.2 20.9 18.0 93 0.7 SW 6 6 3 3 1016.3 1016.2 19.6
27/05:00am 19.2 20.8 17.9 92 0.8 SW 6 9 3 5 1016.0 1015.9 19.6
27/04:30am 19.6 21.0 17.9 90 1.0 SW 7 9 4 5 1015.8 1015.7 19.6
27/04:00am 20.7 22.6 19.0 90 1.1 NW 7 9 4 5 1015.7 1015.6 19.6
27/03:30am 21.5 23.8 19.8 90 1.1 W 7 11 4 6 1015.8 1015.7 19.6
27/03:00am 21.2 23.5 19.8 92 0.9 W 7 9 4 5 1015.9 1015.8 19.6
27/02:30am 21.2 23.5 19.8 92 0.9 WSW 7 11 4 6 1015.9 1015.8 19.6
27/02:00am 21.1 23.3 19.6 91 1.0 N 7 9 4 5 1016.2 1016.1 19.6
27/01:30am 21.5 23.9 20.1 92 0.9 WNW 7 9 4 5 1016.3 1016.2 19.6
27/01:00am 21.5 23.7 20.3 93 0.8 W 9 11 5 6 1016.4 1016.3 19.6
27/12:30am 21.0 24.5 19.6 92 0.9 CALM 0 0 0 0 1016.4 1016.3 19.6
27/12:00am 21.2 24.8 19.7 91 1.0 CALM 0 0 0 0 1016.5 1016.4 19.6
 
Date/Time
EDT
Temp
°C
App
Temp
°C
Dew
Point
Rel
Hum
%
Delta-T
°C
Wind Press
QNH
hPa
Press
MSL
hPa
Rain
since 9 am
mm
Dir
 
Spd
km/h
Gust
km/h
Spd
kts
Gust
kts
26/11:30pm 21.4 23.8 20.0 92 0.9 WSW 7 9 4 5 1016.6 1016.5 19.6
26/11:00pm 21.6 24.0 19.7 89 1.2 W 6 7 3 4 1016.7 1016.6 19.6
26/10:30pm 22.2 24.6 20.1 88 1.4 W 7 11 4 6 1016.6 1016.5 19.6
26/10:00pm 22.0 24.6 20.1 89 1.2 NW 6 7 3 4 1016.5 1016.4 19.6
26/09:30pm 22.3 24.6 20.6 90 1.1 NW 9 11 5 6 1016.8 1016.7 19.6
26/09:00pm 22.0 24.2 20.5 91 1.0 WNW 9 13 5 7 1016.8 1016.7 19.6
26/08:30pm 21.6 24.0 19.7 89 1.2 SSW 6 13 3 7 1016.8 1016.7 19.6
26/08:00pm 21.7 22.9 19.8 89 1.2 NNE 13 17 7 9 1016.3 1016.2 19.2
26/07:30pm 21.5 23.2 19.4 88 1.3 SSE 9 15 5 8 1017.1 1017.0 17.4
26/07:28pm 21.6 23.4 19.5 88 1.3 SSE 9 15 5 8 1017.1 1017.0 17.4
26/07:00pm 22.2 21.2 19.6 85 1.7 NNW 24 43 13 23 1015.0 1014.9 17.0
26/06:56pm 22.1 21.8 19.5 85 1.7 NW 20 43 11 23 1015.5 1015.4 15.2
26/06:30pm 21.8 22.0 19.4 86 1.5 S 17 28 9 15 1015.6 1015.5 10.6
26/06:21pm 24.2 23.1 17.2 65 4.3 WSW 19 39 10 21 1015.7 1015.6 0.4
26/06:00pm 29.3 32.2 22.5 67 4.6 ENE 11 13 6 7 1014.0 1013.9 0.0
26/05:30pm 30.7 33.3 21.2 57 6.4 NE 9 13 5 7 1013.1 1013.1 0.0
26/05:00pm 31.4 33.9 21.8 56 6.5 NNE 11 15 6 8 1013.4 1013.4 0.0
26/04:30pm 31.1 33.9 21.6 57 6.4 NE 9 19 5 10 1013.5 1013.5 0.0
26/04:00pm 30.9 34.0 22.2 59 5.9 NNE 9 17 5 9 1013.9 1013.8 0.0
26/03:30pm 30.1 32.9 22.3 63 5.3 NNE 11 20 6 11 1014.4 1014.3 0.0
26/03:00pm 31.0 33.4 21.5 57 6.4 N 11 17 6 9 1014.8 1014.7 0.0
26/02:30pm 30.4 33.6 22.3 62 5.5 NNE 9 13 5 7 1015.3 1015.2 0.0
26/02:00pm 30.0 32.4 22.2 63 5.3 N 13 19 7 10 1015.9 1015.8 0.0
26/01:30pm 29.6 32.6 21.3 61 5.6 N 7 13 4 7 1016.5 1016.4 0.0
26/01:00pm 29.4 31.4 21.6 63 5.2 NNW 13 20 7 11 1017.0 1016.9 0.0
26/12:30pm 27.8 31.6 20.9 66 4.6 S 2 11 1 6 1017.6 1017.5 0.0
26/12:00pm 27.4 30.3 20.7 67 4.4 WNW 6 11 3 6 1018.1 1018.0 0.0
26/11:30am 27.3 30.3 21.3 69 4.0 NW 7 13 4 7 1018.2 1018.1 0.0
26/11:00am 25.5 28.8 20.7 75 3.1 NNW 4 7 2 4 1018.6 1018.5 0.0
26/10:30am 24.8 27.3 20.3 76 2.9 NW 7 11 4 6 1018.6 1018.5 0.0
26/10:00am 23.9 26.4 20.2 80 2.4 SW 7 11 4 6 1018.6 1018.5 0.0
26/09:30am 23.7 26.2 20.2 81 2.3 WNW 7 9 4 5 1018.5 1018.4 0.0
26/09:00am 23.8 26.4 20.1 80 2.4 WNW 6 9 3 5 1018.3 1018.2 0.0
26/08:30am 23.3 25.4 20.1 82 2.1 NW 9 11 5 6 1018.2 1018.1 0.0
26/08:00am 22.9 25.5 20.1 84 1.8 WNW 6 9 3 5 1018.0 1017.9 0.0
26/07:30am 22.5 25.4 19.9 85 1.7 WNW 4 6 2 3 1017.6 1017.5 0.0
26/07:00am 22.3 25.2 19.8 86 1.6 WNW 4 7 2 4 1017.7 1017.6 0.0
26/06:30am 22.2 25.8 19.7 86 1.6 CALM 0 6 0 3 1017.4 1017.3 0.0
26/06:00am 22.2 25.8 19.7 86 1.6 CALM 0 0 0 0 1017.1 1017.0 0.0
26/05:30am 22.3 25.5 19.7 85 1.7 WNW 2 7 1 4 1017.0 1016.9 0.0
26/05:00am 22.2 25.7 19.6 85 1.7 CALM 0 0 0 0 1016.8 1016.7 0.0
26/04:30am 22.3 25.0 19.5 84 1.8 SSW 4 6 2 3 1016.6 1016.5 0.0
26/04:00am 22.3 25.4 19.5 84 1.8 NW 2 6 1 3 1016.7 1016.6 0.0
26/03:30am 22.3 24.7 19.7 85 1.7 WSW 6 7 3 4 1016.6 1016.5 0.0
26/03:00am 22.2 24.5 19.4 84 1.8 WSW 6 7 3 4 1016.8 1016.7 0.0
26/02:30am 22.3 25.4 19.5 84 1.8 W 2 6 1 3 1016.9 1016.8 0.0
26/02:00am 22.4 25.1 19.4 83 1.9 W 4 7 2 4 1017.2 1017.1 0.0
26/01:30am 22.4 24.2 19.6 84 1.8 S 9 13 5 7 1017.3 1017.2 0.0
26/01:00am 22.4 24.7 19.4 83 1.9 SSW 6 9 3 5 1017.5 1017.4 0.0
26/12:30am 22.5 24.5 19.9 85 1.7 SSW 9 13 5 7 1017.4 1017.3 0.0
26/12:00am 22.7 24.3 19.9 84 1.8 SSW 11 15 6 8 1017.7 1017.6 0.0
 
Date/Time
EDT
Temp
°C
App
Temp
°C
Dew
Point
Rel
Hum
%
Delta-T
°C
Wind Press
QNH
hPa
Press
MSL
hPa
Rain
since 9 am
mm
Dir
 
Spd
km/h
Gust
km/h
Spd
kts
Gust
kts
25/11:30pm 22.8 24.9 20.1 85 1.7 SSW 9 17 5 9 1017.8 1017.7 0.0
25/11:00pm 22.9 24.6 20.2 85 1.7 SSW 11 15 6 8 1018.0 1017.9 0.0
25/10:30pm 22.8 24.5 20.1 85 1.7 S 11 17 6 9 1017.7 1017.6 0.0
25/10:00pm 23.3 24.7 20.4 84 1.9 SSW 13 20 7 11 1017.7 1017.6 0.0
25/09:30pm 23.7 25.7 20.8 84 1.9 S 11 13 6 7 1017.5 1017.4 0.0
25/09:00pm 23.9 25.5 20.8 83 2.0 S 13 19 7 10 1017.3 1017.2 0.0
25/08:30pm 24.1 26.5 20.8 82 2.2 SSE 9 11 5 6 1016.6 1016.5 0.0
25/08:00pm 24.6 26.9 20.7 79 2.5 SSE 9 13 5 7 1016.3 1016.2 0.0
25/07:30pm 24.7 27.0 20.6 78 2.7 SSE 9 13 5 7 1015.9 1015.8 0.0
25/07:00pm 24.9 26.7 20.4 76 2.9 SSE 11 17 6 9 1015.5 1015.4 0.0
25/06:30pm 25.3 26.8 20.5 75 3.1 SE 13 20 7 11 1015.1 1015.0 0.0
25/06:00pm 25.8 26.3 20.8 74 3.3 SE 19 28 10 15 1014.9 1014.8 0.0
25/05:30pm 26.2 26.4 20.5 71 3.7 SE 20 28 11 15 1014.4 1014.3 0.0
25/05:00pm 27.6 28.3 21.6 70 4.0 SE 20 30 11 16 1014.0 1013.9 0.0
25/04:30pm 26.9 26.7 20.5 68 4.2 ESE 22 30 12 16 1014.1 1014.0 0.0
25/04:00pm 28.4 28.3 21.4 66 4.7 SE 24 33 13 18 1013.7 1013.6 0.0
25/03:30pm 26.9 26.9 21.0 70 3.9 SE 22 32 12 17 1013.7 1013.6 0.0
25/03:00pm 27.4 27.7 20.7 67 4.4 SE 20 30 11 16 1013.5 1013.5 0.0
25/02:30pm 30.7 31.2 22.0 59 5.9 SE 22 30 12 16 1013.4 1013.4 0.0
25/02:00pm 29.9 30.1 21.3 60 5.8 SE 22 32 12 17 1013.5 1013.5 0.0
25/01:30pm 30.0 29.6 21.7 61 5.6 SE 26 32 14 17 1013.9 1013.8 0.0
25/01:00pm 30.2 31.0 21.8 60 5.7 SE 20 30 11 16 1014.1 1014.0 0.0
25/12:30pm 30.0 30.7 20.5 56 6.3 ESE 17 28 9 15 1014.4 1014.3 0.0
25/12:00pm 31.4 33.5 21.0 54 7.0 SE 11 15 6 8 1014.5 1014.4 0.0

Other Formats:

Comma delimited format used in spreadsheet applications
http://www.bom.gov.au/fwo/IDN60801/IDN60801.94573.axf

JavaScript Object Notation format (JSON) in row-major order
http://www.bom.gov.au/fwo/IDN60801/IDN60801.94573.json